Time;durP1;ratioP1;P1;durP2;ratioP2;P2;SDS_P1;SDS_P2;PMS_P1;PMS_P2;Temp;Humidity;BMP_temperature;BMP_pressure;BME280_temperature;BME280_humidity;BME280_pressure;Samples;Min_cycle;Max_cycle;Signal;HPM_P1;HPM_P2
2023/05/26 00:00:09;;;;;;;5.45;3.28;;;;;;;12.58;100.00;93176.16;5047515;28;20049;-73
2023/05/26 00:02:36;;;;;;;4.78;2.33;;;;;;;12.58;100.00;93176.16;5048059;28;20060;-72
2023/05/26 00:05:04;;;;;;;5.20;2.63;;;;;;;12.57;100.00;93177.94;5047635;28;20458;-70
2023/05/26 00:07:31;;;;;;;5.05;2.50;;;;;;;12.50;100.00;93175.47;5047733;28;20457;-70
2023/05/26 00:09:57;;;;;;;3.85;2.33;;;;;;;12.47;100.00;93175.13;5047978;28;20561;-70
2023/05/26 00:12:28;;;;;;;4.13;2.40;;;;;;;12.37;100.00;93158.41;5047690;28;20547;-71
2023/05/26 00:14:54;;;;;;;4.78;2.83;;;;;;;12.45;100.00;93172.78;5047361;28;20409;-72
2023/05/26 00:17:22;;;;;;;5.13;2.70;;;;;;;12.41;100.00;93179.38;5047172;28;20048;-71
2023/05/26 00:19:49;;;;;;;5.80;2.88;;;;;;;12.37;100.00;93171.28;5046900;28;20092;-71
2023/05/26 00:22:16;;;;;;;6.47;2.60;;;;;;;12.30;100.00;93180.91;5047426;28;20439;-72
2023/05/26 00:24:43;;;;;;;5.90;2.40;;;;;;;12.30;100.00;93186.06;5047189;28;20049;-72
2023/05/26 00:27:10;;;;;;;6.72;2.40;;;;;;;12.26;100.00;93177.22;5047216;28;20049;-71
2023/05/26 00:29:38;;;;;;;6.25;3.03;;;;;;;12.22;100.00;93176.88;5047004;28;20107;-71
2023/05/26 00:32:05;;;;;;;5.82;2.67;;;;;;;12.13;100.00;93168.69;5047436;28;20049;-71
2023/05/26 00:34:33;;;;;;;4.97;2.85;;;;;;;12.15;100.00;93176.97;5046666;28;20533;-71
2023/05/26 00:37:00;;;;;;;4.15;2.67;;;;;;;12.06;100.00;93170.56;5047395;28;20045;-71
2023/05/26 00:39:27;;;;;;;5.15;2.80;;;;;;;12.03;100.00;93179.47;5047053;28;20155;-72
2023/05/26 00:41:54;;;;;;;5.03;2.90;;;;;;;12.02;100.00;93166.81;5047376;28;20053;-72
2023/05/26 00:44:21;;;;;;;4.20;2.67;;;;;;;12.00;100.00;93169.59;5046923;28;20041;-72
2023/05/26 00:46:50;;;;;;;6.00;3.22;;;;;;;11.96;100.00;93178.78;5047038;28;20045;-72
2023/05/26 00:49:16;;;;;;;5.43;3.38;;;;;;;11.94;100.00;93180.00;5046815;28;20045;-72
2023/05/26 00:51:45;;;;;;;5.20;3.17;;;;;;;11.91;100.00;93183.81;5046888;28;20045;-72
2023/05/26 00:54:13;;;;;;;4.50;2.80;;;;;;;11.91;100.00;93178.66;5046861;28;20045;-72
2023/05/26 00:56:41;;;;;;;4.70;2.88;;;;;;;11.83;100.00;93178.94;5046540;28;20045;-72
2023/05/26 00:59:10;;;;;;;5.15;2.90;;;;;;;11.83;100.00;93187.47;5047021;28;20052;-72
2023/05/26 01:01:37;;;;;;;5.07;3.03;;;;;;;11.82;100.00;93196.19;5047307;28;20411;-72
2023/05/26 01:04:06;;;;;;;4.82;2.78;;;;;;;11.82;100.00;93191.06;5046417;28;20048;-72
2023/05/26 01:06:32;;;;;;;4.88;3.05;;;;;;;11.77;100.00;93193.50;5047147;28;20045;-72
2023/05/26 01:09:00;;;;;;;6.65;3.88;;;;;;;11.72;100.00;93199.25;5046767;28;20045;-72
2023/05/26 01:11:32;;;;;;;9.50;5.75;;;;;;;11.68;100.00;93199.94;5046642;28;20049;-72
2023/05/26 01:14:05;;;;;;;12.07;6.22;;;;;;;11.67;100.00;93196.56;5020907;28;20095;-72
2023/05/26 01:16:39;;;;;;;7.40;4.50;;;;;;;11.60;100.00;93194.09;5046204;28;20501;-72
2023/05/26 01:19:22;;;;;;;6.40;3.67;;;;;;;11.55;100.00;93199.09;5046772;28;20049;-72
2023/05/26 01:21:51;;;;;;;8.55;4.05;;;;;;;11.46;100.00;93190.06;5046698;28;20090;-72
2023/05/26 01:24:29;;;;;;;8.88;4.65;;;;;;;11.43;100.00;93188.72;5046632;28;20049;-72
2023/05/26 01:27:10;;;;;;;7.65;5.03;;;;;;;11.41;100.00;93185.59;5040203;28;20486;-72
2023/05/26 01:29:40;;;;;;;7.32;4.35;;;;;;;11.41;100.00;93188.16;5039834;28;20416;-72
2023/05/26 01:32:09;;;;;;;8.20;3.80;;;;;;;11.39;100.00;93197.09;5035245;28;20045;-72
2023/05/26 01:34:36;;;;;;;5.80;3.67;;;;;;;11.40;100.00;93196.09;5046352;28;20501;-72
2023/05/26 01:37:03;;;;;;;4.88;3.38;;;;;;;11.36;100.00;93198.31;5046796;28;20045;-72
2023/05/26 01:39:30;;;;;;;6.32;3.60;;;;;;;11.32;100.00;93199.72;5050408;28;20056;-72
2023/05/26 01:42:08;;;;;;;4.75;3.13;;;;;;;11.21;100.00;93190.94;5049958;28;20502;-72
2023/05/26 01:44:39;;;;;;;6.38;3.17;;;;;;;11.16;100.00;93191.56;5050074;28;20444;-72
2023/05/26 01:47:07;;;;;;;6.10;3.72;;;;;;;11.16;100.00;93191.56;5049530;28;20107;-72
2023/05/26 01:49:35;;;;;;;4.57;3.15;;;;;;;11.13;100.00;93196.34;5050423;28;20056;-72
2023/05/26 01:52:04;;;;;;;5.40;2.85;;;;;;;11.12;100.00;93200.72;5049777;28;20493;-72
2023/05/26 01:54:35;;;;;;;5.13;3.10;;;;;;;11.12;100.00;93200.72;5049979;28;20501;-72
2023/05/26 01:57:04;;;;;;;3.97;2.78;;;;;;;11.03;100.00;93189.94;5043449;28;20060;-72
2023/05/26 01:59:31;;;;;;;4.55;2.90;;;;;;;10.94;100.00;93196.34;5041715;28;20049;-72
2023/05/26 02:01:59;;;;;;;6.90;3.10;;;;;;;10.95;100.00;93195.34;5040930;28;20450;-72
2023/05/26 02:04:26;;;;;;;5.78;3.10;;;;;;;10.98;100.00;93201.84;5049960;28;20049;-72
2023/05/26 02:06:54;;;;;;;4.18;3.20;;;;;;;10.96;100.00;93196.91;5035842;28;20053;-72
2023/05/26 02:09:21;;;;;;;4.45;2.78;;;;;;;10.93;100.00;93202.47;5049217;28;20067;-72
2023/05/26 02:11:48;;;;;;;5.60;3.50;;;;;;;10.91;100.00;93196.75;5049055;28;20478;-72
2023/05/26 02:14:15;;;;;;;6.38;3.65;;;;;;;10.86;100.00;93206.88;5049383;28;20045;-72
2023/05/26 02:16:43;;;;;;;5.10;3.22;;;;;;;10.80;100.00;93193.09;5049220;28;20079;-72
2023/05/26 02:19:12;;;;;;;4.28;2.60;;;;;;;10.78;100.00;93193.31;5049564;28;20059;-73
2023/05/26 02:21:39;;;;;;;6.68;3.67;;;;;;;10.68;100.00;93180.94;5049447;28;20048;-72
2023/05/26 02:24:06;;;;;;;4.68;2.90;;;;;;;10.80;100.00;93198.25;5049735;28;20045;-72
2023/05/26 02:26:34;;;;;;;10.05;3.40;;;;;;;10.77;100.00;93199.44;5049342;28;20040;-73
2023/05/26 02:29:01;;;;;;;5.47;3.00;;;;;;;10.75;100.00;93201.44;5043873;28;20142;-73
2023/05/26 02:31:28;;;;;;;5.60;2.97;;;;;;;10.77;100.00;93198.66;5049023;28;20454;-73
2023/05/26 02:33:55;;;;;;;4.97;3.00;;;;;;;10.75;100.00;93198.09;5049264;28;20045;-73
2023/05/26 02:36:23;;;;;;;6.25;3.13;;;;;;;10.73;100.00;93194.94;5036118;28;20049;-73
2023/05/26 02:38:50;;;;;;;5.45;2.83;;;;;;;10.73;100.00;93203.44;5049368;28;20045;-73
2023/05/26 02:41:17;;;;;;;4.15;2.70;;;;;;;10.72;100.00;93201.84;5049000;28;20076;-73
2023/05/26 02:43:43;;;;;;;5.55;3.13;;;;;;;10.72;100.00;93203.63;5048164;28;20808;-73
2023/05/26 02:46:11;;;;;;;6.97;3.22;;;;;;;10.66;100.00;93202.69;5048725;28;20514;-73
2023/05/26 02:48:38;;;;;;;5.18;2.80;;;;;;;10.53;100.00;93196.69;5048529;28;20128;-73
2023/05/26 02:51:05;;;;;;;6.10;3.17;;;;;;;10.58;100.00;93202.94;5049083;28;20045;-73
2023/05/26 02:53:33;;;;;;;7.68;3.00;;;;;;;10.56;100.00;93196.25;5048859;28;20052;-73
2023/05/26 02:56:00;;;;;;;4.05;2.55;;;;;;;10.58;100.00;93193.47;5048472;28;20052;-73
2023/05/26 02:58:28;;;;;;;5.18;2.20;;;;;;;10.51;100.00;93195.31;5048129;28;20049;-73
2023/05/26 03:00:55;;;;;;;5.15;3.25;;;;;;;10.48;100.00;93188.81;5048747;28;20314;-73
2023/05/26 03:03:22;;;;;;;6.72;2.95;;;;;;;10.42;100.00;93195.53;5048486;28;20054;-73
2023/05/26 03:05:48;;;;;;;5.68;3.00;;;;;;;10.42;100.00;93190.38;5048648;28;20507;-73
2023/05/26 03:08:15;;;;;;;12.65;4.18;;;;;;;10.39;100.00;93190.81;5048474;28;20084;-73
2023/05/26 03:10:43;;;;;;;13.57;4.60;;;;;;;10.40;100.00;93200.09;5039488;28;20053;-73
2023/05/26 03:13:10;;;;;;;11.23;4.10;;;;;;;10.39;100.00;93200.28;5044624;28;20037;-73
2023/05/26 03:15:39;;;;;;;10.55;4.53;;;;;;;10.39;100.00;93197.72;5048402;28;20048;-73
2023/05/26 03:18:06;;;;;;;9.27;3.80;;;;;;;10.41;100.00;93206.00;5047609;28;20409;-73
2023/05/26 03:20:33;;;;;;;7.13;3.60;;;;;;;10.34;100.00;93188.09;5048285;28;20059;-73
2023/05/26 03:23:00;;;;;;;9.48;4.07;;;;;;;10.37;100.00;93212.56;5047909;28;20433;-73
2023/05/26 03:25:26;;;;;;;8.32;3.85;;;;;;;10.38;100.00;93217.47;5048331;28;20056;-73
2023/05/26 03:27:55;;;;;;;7.22;3.90;;;;;;;10.42;100.00;93203.22;5047242;28;20095;-73
2023/05/26 03:30:22;;;;;;;8.77;3.58;;;;;;;10.42;100.00;93210.94;5047888;28;20048;-73
2023/05/26 03:32:48;;;;;;;6.13;3.55;;;;;;;10.37;100.00;93215.13;5047823;28;20110;-73
2023/05/26 03:35:15;;;;;;;6.55;4.07;;;;;;;10.38;100.00;93212.34;5048016;28;20049;-73
2023/05/26 03:37:42;;;;;;;8.25;5.03;;;;;;;10.37;100.00;93212.56;5047260;28;20045;-73
2023/05/26 03:40:09;;;;;;;9.63;5.07;;;;;;;10.41;100.00;93222.22;5047875;28;20041;-73
2023/05/26 03:42:36;;;;;;;13.48;7.30;;;;;;;10.46;100.00;93216.47;5047217;28;20041;-73
2023/05/26 03:45:05;;;;;;;8.32;4.93;;;;;;;10.54;100.00;93215.44;5047474;28;20053;-73
2023/05/26 03:47:32;;;;;;;6.60;4.22;;;;;;;10.61;100.00;93213.63;5047800;28;20045;-73
2023/05/26 03:49:59;;;;;;;7.63;4.05;;;;;;;10.64;100.00;93218.31;5048095;28;20110;-72
2023/05/26 03:52:26;;;;;;;6.30;3.72;;;;;;;10.68;100.00;93211.78;5047327;28;20056;-73
2023/05/26 03:54:53;;;;;;;6.45;4.20;;;;;;;10.71;100.00;93202.88;5047299;28;20666;-73
2023/05/26 03:57:20;;;;;;;6.07;3.10;;;;;;;10.72;100.00;93204.44;5046959;28;20041;-73
2023/05/26 03:59:47;;;;;;;6.72;3.85;;;;;;;10.77;100.00;93212.28;5047421;28;20052;-73
2023/05/26 04:02:15;;;;;;;6.97;3.65;;;;;;;10.80;100.00;93205.94;5047175;28;20147;-73
2023/05/26 04:04:42;;;;;;;14.25;4.30;;;;;;;10.87;100.00;93209.25;5047573;28;20563;-73
2023/05/26 04:07:08;;;;;;;7.82;3.55;;;;;;;10.94;100.00;93209.19;5046804;28;20045;-73
2023/05/26 04:09:35;;;;;;;10.52;3.80;;;;;;;10.96;100.00;93200.28;5047146;28;20456;-73
2023/05/26 04:12:02;;;;;;;6.03;3.33;;;;;;;11.09;100.00;93208.84;5046276;28;20556;-73
2023/05/26 04:14:29;;;;;;;5.50;3.33;;;;;;;11.13;100.00;93199.72;5046516;28;20059;-73
2023/05/26 04:16:56;;;;;;;7.63;4.20;;;;;;;10.97;100.00;93208.75;5046997;28;20409;-73
2023/05/26 04:19:24;;;;;;;8.50;5.10;;;;;;;10.75;100.00;93193.75;5046776;28;20094;-73
2023/05/26 04:21:51;;;;;;;7.78;4.78;;;;;;;10.52;100.00;93199.44;5047074;28;20137;-73
2023/05/26 04:24:18;;;;;;;8.00;5.15;;;;;;;10.25;100.00;93199.59;5047229;28;20044;-73
2023/05/26 04:26:44;;;;;;;6.85;4.60;;;;;;;10.09;100.00;93185.50;5046432;28;20048;-73
2023/05/26 04:29:11;;;;;;;8.30;5.45;;;;;;;9.92;100.00;93169.78;5046958;28;20052;-72
2023/05/26 04:31:42;;;;;;;13.10;8.48;;;;;;;9.94;100.00;93183.19;5047142;28;20048;-72
2023/05/26 04:34:10;;;;;;;11.15;6.45;;;;;;;9.93;100.00;93173.91;5047187;28;20797;-73
2023/05/26 04:36:39;;;;;;;12.25;7.60;;;;;;;10.21;100.00;93188.97;5046783;28;20470;-73
2023/05/26 04:39:06;;;;;;;11.55;7.03;;;;;;;10.41;100.00;93190.59;5047126;28;20084;-73
2023/05/26 04:41:33;;;;;;;11.05;6.78;;;;;;;10.61;100.00;93190.50;5047077;28;20056;-73
2023/05/26 04:44:00;;;;;;;15.07;8.05;;;;;;;10.83;100.00;93182.38;5047671;28;20791;-73
2023/05/26 04:46:28;;;;;;;21.65;9.13;;;;;;;11.11;100.00;93182.94;5047641;28;20461;-73
2023/05/26 04:48:56;;;;;;;13.98;7.30;;;;;;;11.39;100.00;93182.44;5047430;28;20135;-73
2023/05/26 04:51:23;;;;;;;15.57;7.90;;;;;;;11.71;100.00;93186.63;5047167;28;20611;-73
2023/05/26 04:53:51;;;;;;;18.75;7.10;;;;;;;11.99;100.00;93190.44;5047071;28;20048;-73
2023/05/26 04:56:18;;;;;;;16.05;7.53;;;;;;;12.21;100.00;93190.00;5046728;28;20450;-73
2023/05/26 04:58:45;;;;;;;15.75;6.88;;;;;;;12.43;100.00;93200.56;5046494;28;20517;-72
2023/05/26 05:01:12;;;;;;;14.55;6.00;;;;;;;12.65;100.00;93193.06;5047233;28;20045;-73
2023/05/26 05:03:42;;;;;;;12.88;6.32;;;;;;;12.79;100.00;93198.81;5046697;28;20387;-73
2023/05/26 05:06:09;;;;;;;13.23;6.18;;;;;;;12.90;100.00;93196.44;5047249;28;20053;-73
2023/05/26 05:08:36;;;;;;;12.63;6.05;;;;;;;12.97;100.00;93192.00;5046836;28;20056;-73
2023/05/26 05:11:05;;;;;;;15.02;6.70;;;;;;;13.09;100.00;93189.38;5046291;28;20060;-73
2023/05/26 05:13:32;;;;;;;25.27;7.70;;;;;;;13.22;100.00;93191.75;5049046;28;20057;-73
2023/05/26 05:15:59;;;;;;;13.75;6.15;;;;;;;13.34;100.00;93190.94;5050490;28;20056;-73
2023/05/26 05:18:26;;;;;;;15.80;6.85;;;;;;;13.47;100.00;93179.63;5050574;28;20374;-73
2023/05/26 05:20:52;;;;;;;14.35;7.65;;;;;;;13.59;100.00;93187.31;5050845;28;20501;-73
2023/05/26 05:23:19;;;;;;;14.52;7.60;;;;;;;13.73;100.00;93182.69;5050165;28;20045;-72
2023/05/26 05:25:46;;;;;;;16.45;7.75;;;;;;;13.89;100.00;93189.69;5050083;28;20053;-73
2023/05/26 05:28:14;;;;;;;19.25;7.57;;;;;;;14.06;100.00;93183.03;5050300;28;20041;-73
2023/05/26 05:30:41;;;;;;;16.88;8.40;;;;;;;14.05;100.00;93151.25;5049899;28;20060;-73
2023/05/26 05:33:08;;;;;;;20.98;8.23;;;;;;;14.39;100.00;93179.69;5024476;28;20060;-73
2023/05/26 05:35:35;;;;;;;13.85;7.50;;;;;;;14.55;100.00;93172.19;5050029;28;20088;-72
2023/05/26 05:38:02;;;;;;;11.07;5.90;;;;;;;14.71;100.00;93186.13;5032753;28;20104;-73
2023/05/26 05:40:29;;;;;;;9.90;6.22;;;;;;;14.92;100.00;93186.47;5049781;28;20525;-73
2023/05/26 05:42:55;;;;;;;11.75;6.18;;;;;;;15.12;100.00;93182.56;5049719;28;20045;-72
2023/05/26 05:45:23;;;;;;;9.73;5.43;;;;;;;15.36;100.00;93180.56;5049738;28;20559;-73
2023/05/26 05:47:50;;;;;;;8.35;5.82;;;;;;;15.57;100.00;93189.38;5050230;28;20044;-73
2023/05/26 05:50:17;;;;;;;8.82;5.53;;;;;;;15.80;100.00;93191.94;5049497;28;20550;-73
2023/05/26 05:52:44;;;;;;;11.15;5.57;;;;;;;15.99;100.00;93190.66;5049318;28;20416;-72
2023/05/26 05:55:11;;;;;;;10.98;6.47;;;;;;;16.12;100.00;93196.47;5049426;28;20049;-73
2023/05/26 05:57:38;;;;;;;9.75;4.97;;;;;;;16.35;100.00;93198.00;5049723;28;20045;-73
2023/05/26 06:00:07;;;;;;;9.50;5.63;;;;;;;16.63;100.00;93193.56;5050069;28;20448;-71
2023/05/26 06:02:35;;;;;;;7.65;4.72;;;;;;;16.93;100.00;93199.97;5049589;28;20122;-70
2023/05/26 06:05:02;;;;;;;9.18;5.00;;;;;;;17.23;100.00;93185.66;5049313;28;20512;-70
2023/05/26 06:07:29;;;;;;;9.50;5.57;;;;;;;17.68;100.00;93197.56;5049452;28;20448;-70
2023/05/26 06:09:57;;;;;;;5.10;3.58;;;;;;;17.68;100.00;93203.50;5049378;28;20049;-70
2023/05/26 06:12:23;;;;;;;6.80;3.83;;;;;;;17.92;100.00;93195.31;5049532;28;20041;-70
2023/05/26 06:14:50;;;;;;;4.47;3.22;;;;;;;18.07;100.00;93215.38;5049456;28;20045;-70
2023/05/26 06:17:17;;;;;;;5.72;3.30;;;;;;;18.45;100.00;93211.78;5049393;28;20044;-70
2023/05/26 06:19:45;;;;;;;5.13;3.50;;;;;;;18.88;100.00;93214.94;5049139;28;20045;-71
2023/05/26 06:22:12;;;;;;;5.05;3.30;;;;;;;19.19;100.00;93217.56;5049214;28;20041;-71
2023/05/26 06:24:39;;;;;;;4.53;3.20;;;;;;;19.54;100.00;93216.94;5048717;28;20049;-71
2023/05/26 06:27:07;;;;;;;7.15;3.20;;;;;;;19.77;100.00;93221.56;5049463;28;20189;-71
2023/05/26 06:29:33;;;;;;;4.05;3.05;;;;;;;20.09;100.00;93224.81;5049015;28;21217;-71
2023/05/26 06:32:00;;;;;;;5.40;2.95;;;;;;;19.99;100.00;93230.09;5049465;28;20072;-71
2023/05/26 06:34:27;;;;;;;4.45;2.92;;;;;;;20.13;100.00;93232.88;5048829;28;20041;-70
2023/05/26 06:36:55;;;;;;;4.07;2.72;;;;;;;20.22;100.00;93231.28;5048958;28;20049;-70
2023/05/26 06:39:23;;;;;;;4.90;2.97;;;;;;;20.27;100.00;93225.28;5048656;28;20045;-71
2023/05/26 06:41:50;;;;;;;4.22;3.00;;;;;;;20.28;100.00;93229.44;5049238;28;20088;-71
2023/05/26 06:44:17;;;;;;;4.75;3.25;;;;;;;20.37;100.00;93216.59;5049004;28;20052;-71
2023/05/26 06:46:44;;;;;;;5.63;3.10;;;;;;;20.65;100.00;93230.00;5049212;28;20441;-71
2023/05/26 06:49:11;;;;;;;4.05;2.80;;;;;;;20.85;100.00;93239.53;5049246;28;20045;-71
2023/05/26 06:51:37;;;;;;;8.25;3.45;;;;;;;20.73;97.07;93242.44;5048934;28;20119;-71
2023/05/26 06:54:06;;;;;;;5.55;3.10;;;;;;;21.05;100.00;93232.56;5048449;28;20052;-71
2023/05/26 06:56:33;;;;;;;4.50;2.88;;;;;;;20.94;98.16;93237.91;5048430;28;20056;-70
2023/05/26 06:58:59;;;;;;;4.20;2.67;;;;;;;20.48;99.25;93235.56;5048948;28;20045;-70
2023/05/26 07:01:26;;;;;;;4.82;3.03;;;;;;;20.60;100.00;93227.41;5048775;28;20547;-70
2023/05/26 07:03:53;;;;;;;6.10;2.97;;;;;;;20.35;99.55;93235.13;5048506;28;20094;-70
2023/05/26 07:06:20;;;;;;;4.28;2.70;;;;;;;20.56;90.06;93233.16;5048237;28;20409;-70
2023/05/26 07:08:46;;;;;;;4.28;2.70;;;;;;;20.41;94.12;93233.28;5022765;28;20041;-70
2023/05/26 07:11:15;;;;;;;3.83;2.50;;;;;;;20.85;96.47;93228.25;5048387;28;20548;-71
2023/05/26 07:13:41;;;;;;;3.60;2.28;;;;;;;21.04;92.99;93231.00;5048104;28;20060;-71
2023/05/26 07:16:08;;;;;;;5.15;2.30;;;;;;;20.42;92.39;93232.22;5047790;28;20048;-70
2023/05/26 07:18:35;;;;;;;4.03;2.88;;;;;;;20.89;92.11;93229.31;5035792;28;20516;-71
2023/05/26 07:21:02;;;;;;;3.78;2.63;;;;;;;21.09;88.58;93225.75;5047569;28;20044;-70
2023/05/26 07:23:28;;;;;;;5.13;2.75;;;;;;;20.80;90.31;93229.09;5048394;28;20099;-71
2023/05/26 07:25:56;;;;;;;3.38;2.30;;;;;;;20.85;88.32;93228.25;5047950;28;20545;-70
2023/05/26 07:28:24;;;;;;;9.60;3.05;;;;;;;21.28;87.35;93227.69;5048268;28;20048;-70
2023/05/26 07:30:51;;;;;;;3.80;2.75;;;;;;;21.27;90.77;93224.28;5048305;28;20045;-71
2023/05/26 07:33:18;;;;;;;4.18;2.65;;;;;;;20.68;83.18;93227.59;5048296;28;20040;-71
2023/05/26 07:35:45;;;;;;;6.03;3.17;;;;;;;21.21;87.56;93215.69;5046535;28;20150;-70
2023/05/26 07:38:12;;;;;;;4.82;2.80;;;;;;;21.68;84.01;93220.47;5047774;28;20490;-70
2023/05/26 07:40:39;;;;;;;4.63;2.45;;;;;;;21.97;83.95;93218.84;5047468;28;20056;-70
2023/05/26 07:43:12;;;;;;;6.68;3.15;;;;;;;22.06;81.51;93216.38;5048015;28;20410;-70
2023/05/26 07:45:40;;;;;;;6.50;3.40;;;;;;;22.32;86.76;93208.19;5047538;28;20115;-70
2023/05/26 07:48:07;;;;;;;5.57;2.83;;;;;;;22.12;80.56;93197.72;5048385;28;20465;-71
2023/05/26 07:50:34;;;;;;;5.68;3.40;;;;;;;21.83;80.57;93206.47;5047307;28;20048;-70
2023/05/26 07:53:01;;;;;;;4.60;2.90;;;;;;;21.70;82.09;93207.91;5047949;28;20053;-70
2023/05/26 07:55:28;;;;;;;5.25;2.60;;;;;;;22.09;83.11;93194.91;5047449;28;20061;-71
2023/05/26 07:57:54;;;;;;;3.70;2.67;;;;;;;22.06;81.90;93208.53;5048032;28;20093;-73
2023/05/26 08:00:21;;;;;;;5.72;2.28;;;;;;;22.28;80.45;93198.28;5047962;28;20052;-71
2023/05/26 08:02:50;;;;;;;3.33;2.15;;;;;;;22.34;78.50;93196.38;5047989;28;20049;-70
2023/05/26 08:05:16;;;;;;;4.40;2.42;;;;;;;;;;5047305;28;20049;-71
2023/05/26 08:07:43;;;;;;;5.55;2.78;;;;;;;22.21;78.09;93200.47;5047690;28;20048;-71
2023/05/26 08:10:10;;;;;;;4.55;2.45;;;;;;;22.11;75.04;93196.19;5047509;28;20549;-71
2023/05/26 08:12:37;;;;;;;5.85;3.42;;;;;;;21.21;79.23;93204.50;5047598;28;20484;-71
2023/05/26 08:15:05;;;;;;;6.30;3.00;;;;;;;21.31;80.80;93195.78;5047750;28;20480;-71
2023/05/26 08:17:31;;;;;;;4.13;2.47;;;;;;;21.02;79.41;93197.34;5046920;28;20087;-71
2023/05/26 08:19:59;;;;;;;4.75;2.70;;;;;;;20.38;85.49;93205.91;5047410;28;20412;-71
2023/05/26 08:22:26;;;;;;;5.80;3.78;;;;;;;20.27;86.27;93196.59;5047276;28;20103;-70
2023/05/26 08:24:53;;;;;;;8.35;3.85;;;;;;;20.69;82.30;93205.69;5047418;28;20425;-71
2023/05/26 08:27:20;;;;;;;5.97;3.67;;;;;;;20.78;82.40;93200.66;5047512;28;20424;-71
2023/05/26 08:29:47;;;;;;;4.57;2.60;;;;;;;20.82;82.05;93198.25;5047433;28;20103;-71
2023/05/26 08:32:13;;;;;;;11.35;3.90;;;;;;;20.89;86.82;93187.53;5046950;28;20098;-70
2023/05/26 08:34:42;;;;;;;4.80;3.10;;;;;;;20.63;87.62;93177.28;5047548;28;20053;-71
2023/05/26 08:37:11;;;;;;;4.35;3.03;;;;;;;21.14;82.98;93181.31;5021400;28;20072;-70
2023/05/26 08:39:38;;;;;;;4.43;3.00;;;;;;;20.88;79.16;93176.31;5046733;28;20053;-71
2023/05/26 08:42:07;;;;;;;5.88;3.03;;;;;;;21.10;80.18;93169.84;5046975;28;20041;-71
2023/05/26 08:44:35;;;;;;;6.38;3.47;;;;;;;20.82;77.59;93172.94;5046918;28;20084;-71
2023/05/26 08:47:03;;;;;;;4.60;3.00;;;;;;;21.10;82.22;93164.63;5048730;28;20059;-71
2023/05/26 08:49:36;;;;;;;4.72;3.20;;;;;;;20.98;79.40;93172.84;5051474;28;20099;-71
2023/05/26 08:52:09;;;;;;;6.20;2.92;;;;;;;20.79;84.74;93173.47;5050568;28;20509;-71
2023/05/26 08:54:37;;;;;;;8.68;3.22;;;;;;;20.57;86.10;93166.09;5050853;28;20048;-71
2023/05/26 08:57:05;;;;;;;5.45;3.45;;;;;;;20.61;85.31;93168.94;5051125;28;20519;-73
2023/05/26 08:59:32;;;;;;;7.07;3.30;;;;;;;20.63;85.72;93165.00;5051444;28;20056;-71
2023/05/26 09:02:00;;;;;;;6.07;3.15;;;;;;;20.65;87.66;93162.13;5050327;28;20048;-71
2023/05/26 09:04:27;;;;;;;7.20;3.92;;;;;;;20.95;85.00;93176.00;5043460;28;20057;-71
2023/05/26 09:06:54;;;;;;;6.30;3.45;;;;;;;20.85;83.47;93169.03;5041016;28;20063;-71
2023/05/26 09:09:21;;;;;;;5.15;2.97;;;;;;;20.63;86.18;93172.06;5050640;28;20048;-71
2023/05/26 09:11:49;;;;;;;5.40;3.47;;;;;;;20.17;85.88;93171.34;5050832;28;20044;-71
2023/05/26 09:14:17;;;;;;;8.18;4.18;;;;;;;19.97;86.32;93154.78;5050640;28;20055;-71
2023/05/26 09:16:44;;;;;;;5.25;3.75;;;;;;;20.38;85.20;93155.56;5049847;28;20053;-71
2023/05/26 09:19:14;;;;;;;6.38;3.95;;;;;;;20.38;87.01;93156.34;5050398;28;20045;-71
2023/05/26 09:21:46;;;;;;;6.80;4.70;;;;;;;20.70;86.54;93149.81;5050060;28;20052;-71
2023/05/26 09:24:16;;;;;;;6.43;3.60;;;;;;;20.73;83.07;93148.47;5050167;28;20118;-71
2023/05/26 09:26:45;;;;;;;8.40;4.95;;;;;;;20.85;79.02;93160.38;5050188;28;20117;-71
2023/05/26 09:29:14;;;;;;;10.82;5.90;;;;;;;20.86;78.51;93154.13;5050474;28;20044;-71
2023/05/26 09:31:45;;;;;;;6.28;3.78;;;;;;;20.29;79.13;93152.75;5047019;28;20050;-72
2023/05/26 09:34:12;;;;;;;21.67;11.60;;;;;;;20.74;84.32;93151.88;5050005;28;20045;-71
2023/05/26 09:36:40;;;;;;;15.60;8.75;;;;;;;21.11;79.29;93158.38;5049624;28;20056;-71
2023/05/26 09:39:10;;;;;;;7.63;3.40;;;;;;;20.91;79.36;93167.94;5050484;28;20048;-72
2023/05/26 09:41:37;;;;;;;12.15;6.43;;;;;;;20.55;81.11;93158.53;5049450;28;20083;-72
2023/05/26 09:44:08;;;;;;;7.88;3.95;;;;;;;21.02;78.97;93170.47;5050078;28;20130;-71
2023/05/26 09:46:37;;;;;;;9.40;5.10;;;;;;;21.23;75.67;93152.75;5049738;28;20094;-71
2023/05/26 09:49:09;;;;;;;7.13;4.15;;;;;;;20.74;77.87;93157.09;5049614;28;20045;-71
2023/05/26 09:51:36;;;;;;;6.05;3.38;;;;;;;20.75;74.52;93164.66;5049669;28;20048;-71
2023/05/26 09:54:02;;;;;;;7.35;3.50;;;;;;;21.30;77.28;93173.31;5049343;28;20049;-71
2023/05/26 09:56:35;;;;;;;5.85;3.90;;;;;;;21.23;77.14;93158.75;5049926;28;20052;-71
2023/05/26 09:59:05;;;;;;;5.53;3.90;;;;;;;21.63;76.85;93166.41;5049049;28;20138;-71
2023/05/26 10:01:33;;;;;;;7.05;4.57;;;;;;;21.40;75.90;93172.41;5049801;28;20079;-71
2023/05/26 10:04:02;;;;;;;6.22;3.92;;;;;;;21.58;76.36;93181.38;5023595;28;20098;-71
2023/05/26 10:06:31;;;;;;;5.68;3.88;;;;;;;21.05;89.20;93186.34;5048981;28;20049;-71
2023/05/26 10:09:00;;;;;;;5.28;3.60;;;;;;;20.65;100.00;93178.56;5049516;28;20493;-71
2023/05/26 10:11:29;;;;;;;5.25;3.70;;;;;;;19.59;100.00;93193.47;5049124;28;20051;-71
2023/05/26 10:13:56;;;;;;;6.25;3.92;;;;;;;19.05;100.00;93183.47;5049367;28;20052;-71
2023/05/26 10:16:24;;;;;;;6.38;3.42;;;;;;;18.52;100.00;93184.50;5049169;28;20049;-71
2023/05/26 10:18:51;;;;;;;6.43;3.50;;;;;;;18.79;100.00;93183.44;5049350;28;20079;-71
2023/05/26 10:21:24;;;;;;;6.43;4.10;;;;;;;18.66;100.00;93176.94;5049887;28;20473;-71
2023/05/26 10:23:58;;;;;;;5.70;3.15;;;;;;;18.10;100.00;93183.66;5049935;28;20135;-71
2023/05/26 10:26:31;;;;;;;5.85;3.30;;;;;;;17.84;100.00;93167.19;5049055;28;20095;-71
2023/05/26 10:29:05;;;;;;;4.95;3.05;;;;;;;17.81;100.00;93165.91;5049132;28;20059;-71
2023/05/26 10:31:33;;;;;;;4.28;3.05;;;;;;;17.42;100.00;93166.28;5048703;28;20433;-71
2023/05/26 10:33:59;;;;;;;4.65;3.67;;;;;;;16.55;100.00;93184.41;5049233;28;20414;-71
2023/05/26 10:36:28;;;;;;;6.13;3.65;;;;;;;15.85;100.00;93172.09;5049211;28;20045;-72
2023/05/26 10:38:56;;;;;;;7.18;4.25;;;;;;;15.61;100.00;93164.56;5049159;28;20093;-71
2023/05/26 10:41:33;;;;;;;7.32;4.53;;;;;;;15.72;100.00;93142.16;5049202;28;20049;-71
2023/05/26 10:44:01;;;;;;;6.57;4.72;;;;;;;15.69;100.00;93160.00;5048406;28;20497;-71
2023/05/26 10:46:38;;;;;;;6.95;5.32;;;;;;;15.76;100.00;93148.44;5049244;28;20515;-71
2023/05/26 10:49:19;;;;;;;7.00;5.57;;;;;;;15.86;100.00;93145.16;5048576;28;20523;-71
2023/05/26 10:51:52;;;;;;;7.57;5.70;;;;;;;16.15;100.00;93141.53;5048896;28;20114;-70
2023/05/26 10:54:22;;;;;;;8.27;5.90;;;;;;;16.32;100.00;93151.00;5024122;28;20390;-71
2023/05/26 10:56:51;;;;;;;7.20;4.63;;;;;;;16.31;100.00;93160.63;5048352;28;20385;-71
2023/05/26 10:59:22;;;;;;;5.53;4.15;;;;;;;16.33;100.00;93171.50;5048291;28;20044;-70
2023/05/26 11:01:53;;;;;;;4.47;3.67;;;;;;;16.26;100.00;93178.72;5048475;28;20501;-70
2023/05/26 11:04:21;;;;;;;4.25;3.58;;;;;;;16.21;100.00;93191.63;5048945;28;20049;-70
2023/05/26 11:06:51;;;;;;;5.28;3.38;;;;;;;16.41;100.00;93189.22;5048566;28;20131;-70
2023/05/26 11:09:22;;;;;;;4.82;3.60;;;;;;;16.66;100.00;93195.63;5048673;28;20107;-70
2023/05/26 11:11:54;;;;;;;5.45;3.50;;;;;;;16.66;100.00;93181.91;5047231;28;20052;-70
2023/05/26 11:14:24;;;;;;;8.85;4.63;;;;;;;17.22;100.00;93180.72;5048058;28;20449;-70
2023/05/26 11:16:52;;;;;;;5.70;3.17;;;;;;;17.46;100.00;93180.31;5048564;28;20052;-70
2023/05/26 11:19:28;;;;;;;4.18;2.75;;;;;;;17.57;100.00;93197.50;5035574;28;20080;-70
2023/05/26 11:21:57;;;;;;;3.83;2.75;;;;;;;17.56;100.00;93180.38;5024405;28;20145;-70
2023/05/26 11:24:24;;;;;;;5.15;3.17;;;;;;;17.50;100.00;93176.97;5048095;28;20052;-71
2023/05/26 11:26:51;;;;;;;4.38;2.90;;;;;;;17.50;100.00;93165.81;5048140;28;20049;-70
2023/05/26 11:29:21;;;;;;;6.05;3.97;;;;;;;17.71;100.00;93160.66;5048045;28;20068;-71